Time;durP1;ratioP1;P1;durP2;ratioP2;P2;SDS_P1;SDS_P2;PMS_P1;PMS_P2;Temp;Humidity;BMP_temperature;BMP_pressure;BME280_temperature;BME280_humidity;BME280_pressure;Samples;Min_cycle;Max_cycle;Signal;HPM_P1;HPM_P2
2022/07/07 00:00:00;;;;;;;;;;;;;;;17.18;49.84;100456.84;1087481;39;20456;-79
2022/07/07 00:01:06;;;;;;;;;;;;;;;17.15;50.09;100451.78;1086754;54;20049;-78
2022/07/07 00:02:29;;;;;;;;;;;;;;;17.13;49.94;100453.81;1086783;54;19979;-79
2022/07/07 00:03:35;;;;;;;;;;;;;;;17.13;50.08;100449.28;1086959;54;20474;-78
2022/07/07 00:04:40;;;;;;;;;;;;;;;17.12;50.05;100452.13;1087137;54;19950;-79
2022/07/07 00:05:46;;;;;;;;;;;;;;;17.10;50.32;100452.31;1087094;54;19939;-79
2022/07/07 00:06:50;;;;;;;;;;;;;;;17.09;50.57;100450.63;1086765;54;19950;-79
2022/07/07 00:07:54;;;;;;;;;;;;;;;17.07;50.45;100446.44;1086347;54;19951;-79
2022/07/07 00:09:01;;;;;;;;;;;;;;;17.07;50.73;100455.38;1086698;54;19950;-78
2022/07/07 00:10:08;;;;;;;;;;;;;;;17.08;50.54;100456.22;1086401;54;19953;-78
2022/07/07 00:11:17;;;;;;;;;;;;;;;17.07;50.52;100441.84;1086676;54;19943;-78
2022/07/07 00:13:37;;;;;;;;;;;;;;;17.10;50.33;100443.34;1087634;54;20489;-79
2022/07/07 00:14:38;;;;;;;;;;;;;;;17.13;50.42;100443.88;1086944;54;19971;-79
2022/07/07 00:15:45;;;;;;;;;;;;;;;17.14;50.37;100448.22;1086380;54;20762;-79
2022/07/07 00:16:48;;;;;;;;;;;;;;;17.16;50.33;100442.66;1085908;54;19981;-79
2022/07/07 00:17:55;;;;;;;;;;;;;;;17.09;50.44;100441.69;1085544;54;20039;-77
2022/07/07 00:19:01;;;;;;;;;;;;;;;17.10;50.50;100444.22;1085356;54;19957;-78
2022/07/07 00:20:05;;;;;;;;;;;;;;;17.16;50.33;100442.66;1085428;54;19951;-78
2022/07/07 00:21:10;;;;;;;;;;;;;;;17.19;50.08;100442.31;1085870;47;19966;-79
2022/07/07 00:22:14;;;;;;;;;;;;;;;17.15;50.31;100433.69;1086113;54;19971;-78
2022/07/07 00:23:16;;;;;;;;;;;;;;;17.19;50.01;100441.47;1086224;54;19953;-78
2022/07/07 00:24:22;;;;;;;;;;;;;;;17.16;50.25;100437.25;1086405;54;19953;-80
2022/07/07 00:25:29;;;;;;;;;;;;;;;17.20;50.02;100441.28;1086020;54;20031;-79
2022/07/07 00:26:36;;;;;;;;;;;;;;;17.25;49.87;100438.88;1085979;54;19971;-79
2022/07/07 00:27:37;;;;;;;;;;;;;;;17.21;49.92;100434.03;1085735;54;19953;-79
2022/07/07 00:28:41;;;;;;;;;;;;;;;17.39;49.09;100431.00;1084258;54;19951;-79
2022/07/07 00:29:44;;;;;;;;;;;;;;;17.52;48.74;100428.56;1086622;39;20750;-80
2022/07/07 00:30:48;;;;;;;;;;;;;;;17.36;48.97;100429.50;1085610;54;19954;-79
2022/07/07 00:31:49;;;;;;;;;;;;;;;17.30;49.30;100431.06;1085122;54;19954;-79
2022/07/07 00:32:53;;;;;;;;;;;;;;;17.31;49.10;100430.06;1085536;54;19951;-79
2022/07/07 00:33:56;;;;;;;;;;;;;;;17.28;49.55;100430.44;1085488;54;19939;-79
2022/07/07 00:35:00;;;;;;;;;;;;;;;17.25;49.53;100424.53;1085447;54;19947;-79
2022/07/07 00:36:03;;;;;;;;;;;;;;;17.18;49.28;100421.72;1085542;54;19957;-79
2022/07/07 00:37:07;;;;;;;;;;;;;;;17.21;49.40;100434.84;1085317;54;19947;-79
2022/07/07 00:38:09;;;;;;;;;;;;;;;17.22;49.54;100436.53;1086520;54;19934;-79
2022/07/07 00:39:13;;;;;;;;;;;;;;;17.16;49.79;100426.47;1086625;54;19947;-78
2022/07/07 00:40:17;;;;;;;;;;;;;;;17.12;50.01;100423.28;1086882;54;19950;-80
2022/07/07 00:41:21;;;;;;;;;;;;;;;17.12;49.56;100425.13;1086750;54;19948;-79
2022/07/07 00:42:22;;;;;;;;;;;;;;;17.16;49.96;100426.47;1086678;54;19954;-79
2022/07/07 00:43:26;;;;;;;;;;;;;;;17.11;49.87;100426.13;1086770;54;20021;-79
2022/07/07 00:44:28;;;;;;;;;;;;;;;17.10;50.18;100422.59;1086619;54;19975;-79
2022/07/07 00:45:32;;;;;;;;;;;;;;;17.14;50.05;100423.09;1086098;54;20057;-79
2022/07/07 00:46:38;;;;;;;;;;;;;;;17.18;50.23;100426.25;1085975;54;19971;-79
2022/07/07 00:47:42;;;;;;;;;;;;;;;17.07;50.68;100417.56;1085888;54;20025;-79
2022/07/07 00:48:46;;;;;;;;;;;;;;;17.14;50.38;100423.91;1086204;54;19946;-79
2022/07/07 00:49:48;;;;;;;;;;;;;;;17.09;50.59;100422.78;1085949;54;19943;-79
2022/07/07 00:50:51;;;;;;;;;;;;;;;17.11;50.69;100424.28;1085689;54;20488;-79
2022/07/07 00:51:53;;;;;;;;;;;;;;;17.11;50.48;100418.88;1086380;54;19947;-79
2022/07/07 00:52:57;;;;;;;;;;;;;;;17.11;50.48;100420.72;1087009;54;19963;-80
2022/07/07 00:53:58;;;;;;;;;;;;;;;17.12;50.40;100415.16;1086752;54;20477;-79
2022/07/07 00:55:02;;;;;;;;;;;;;;;17.13;50.48;100408.75;1086797;54;19950;-79
2022/07/07 01:06:38;;;;;;;;;;;;;;;17.07;51.31;100405.91;1087948;54;19993;-80
2022/07/07 01:07:39;;;;;;;;;;;;;;;17.10;51.02;100400.13;1088056;54;19942;-80
2022/07/07 01:08:43;;;;;;;;;;;;;;;17.10;51.00;100400.13;1088046;54;19942;-81
2022/07/07 01:09:44;;;;;;;;;;;;;;;17.07;51.32;100400.53;1087580;54;20019;-81
2022/07/07 01:10:48;;;;;;;;;;;;;;;17.05;51.01;100407.94;1087942;54;19926;-80
2022/07/07 01:11:52;;;;;;;;;;;;;;;17.04;51.35;100400.88;1088079;54;19954;-81
2022/07/07 01:12:55;;;;;;;;;;;;;;;17.01;51.37;100404.78;1087920;54;19962;-81
2022/07/07 01:13:57;;;;;;;;;;;;;;;16.96;51.70;100399.91;1091548;39;20725;-81
2022/07/07 01:15:01;;;;;;;;;;;;;;;17.03;51.67;100399.19;1087981;54;19966;-80
2022/07/07 01:16:02;;;;;;;;;;;;;;;17.00;51.66;100395.81;1087876;54;19927;-81
2022/07/07 01:17:06;;;;;;;;;;;;;;;17.12;51.43;100398.97;1087996;54;19966;-80
2022/07/07 01:18:07;;;;;;;;;;;;;;;17.16;51.36;100394.03;1088027;54;19946;-80
2022/07/07 01:19:11;;;;;;;;;;;;;;;17.06;51.57;100398.84;1088007;54;19945;-81
2022/07/07 01:20:13;;;;;;;;;;;;;;;17.03;51.76;100393.78;1088054;54;19962;-81
2022/07/07 01:21:21;;;;;;;;;;;;;;;17.00;51.77;100395.81;1088029;54;19942;-80
2022/07/07 01:22:27;;;;;;;;;;;;;;;17.00;51.90;100393.13;1088021;54;19950;-80
2022/07/07 01:23:34;;;;;;;;;;;;;;;16.95;52.29;100390.13;1088055;54;19947;-81
2022/07/07 01:24:36;;;;;;;;;;;;;;;16.93;52.47;100386.75;1087954;54;19951;-80
2022/07/07 01:25:40;;;;;;;;;;;;;;;16.90;52.49;100386.25;1087677;54;19942;-81
2022/07/07 01:26:41;;;;;;;;;;;;;;;16.88;52.44;100383.72;1087519;54;19974;-82
2022/07/07 01:27:46;;;;;;;;;;;;;;;16.90;52.60;100383.53;1087569;54;19942;-81
2022/07/07 01:28:47;;;;;;;;;;;;;;;16.96;52.07;100381.00;1087665;54;20007;-81
2022/07/07 01:29:53;;;;;;;;;;;;;;;16.93;52.41;100378.66;1087628;54;19998;-81
2022/07/07 01:30:55;;;;;;;;;;;;;;;16.99;52.45;100385.19;1087635;54;19950;-82
2022/07/07 01:32:01;;;;;;;;;;;;;;;16.96;52.43;100388.25;1087623;54;19991;-81
2022/07/07 01:33:03;;;;;;;;;;;;;;;16.95;52.32;100381.19;1087650;54;19963;-81
2022/07/07 01:34:07;;;;;;;;;;;;;;;16.94;52.40;100383.03;1087600;54;19943;-82
2022/07/07 01:35:09;;;;;;;;;;;;;;;16.95;52.64;100381.19;1087516;54;19935;-81
2022/07/07 01:36:15;;;;;;;;;;;;;;;16.88;52.48;100381.03;1087600;54;19950;-81
2022/07/07 01:37:17;;;;;;;;;;;;;;;16.93;52.78;100386.75;1087498;54;19942;-82
2022/07/07 01:38:20;;;;;;;;;;;;;;;16.94;52.63;100385.72;1087550;54;20002;-81
2022/07/07 01:39:25;;;;;;;;;;;;;;;16.97;52.18;100379.13;1087594;54;19942;-81
2022/07/07 01:40:29;;;;;;;;;;;;;;;16.96;52.23;100382.84;1091109;39;20732;-82
2022/07/07 01:41:30;;;;;;;;;;;;;;;16.98;52.36;100381.69;1087610;54;19951;-81
2022/07/07 01:42:34;;;;;;;;;;;;;;;17.03;51.97;100372.19;1087510;54;19942;-81
2022/07/07 01:43:35;;;;;;;;;;;;;;;17.03;52.17;100372.19;1087422;54;19935;-81
2022/07/07 01:44:40;;;;;;;;;;;;;;;17.03;52.18;100373.03;1088533;39;20397;-82
2022/07/07 01:45:41;;;;;;;;;;;;;;;16.99;52.28;100372.56;1087360;54;19943;-84
2022/07/07 01:46:46;;;;;;;;;;;;;;;17.02;52.06;100365.09;1090169;39;20816;-82
2022/07/07 01:47:47;;;;;;;;;;;;;;;16.96;52.12;100364.81;1087922;54;19946;-81
2022/07/07 01:48:51;;;;;;;;;;;;;;;17.00;52.01;100368.81;1087966;54;20453;-80
2022/07/07 01:49:52;;;;;;;;;;;;;;;16.99;51.75;100372.56;1087959;54;19949;-83
2022/07/07 01:50:56;;;;;;;;;;;;;;;16.97;52.05;100362.94;1087898;54;19994;-83
2022/07/07 01:51:58;;;;;;;;;;;;;;;16.93;52.18;100378.66;1087950;54;19950;-80
2022/07/07 01:53:02;;;;;;;;;;;;;;;16.89;52.28;100371.91;1088877;39;20439;-80
2022/07/07 01:54:03;;;;;;;;;;;;;;;16.92;51.90;100371.53;1088034;54;19942;-81
2022/07/07 01:55:11;;;;;;;;;;;;;;;16.97;51.76;100358.38;1087863;54;19942;-80
2022/07/07 01:56:12;;;;;;;;;;;;;;;17.00;51.88;100366.09;1087821;54;19943;-83
2022/07/07 01:57:16;;;;;;;;;;;;;;;17.00;51.91;100367.97;1087897;54;19942;-82
2022/07/07 01:58:17;;;;;;;;;;;;;;;17.06;51.50;100374.53;1088017;54;19945;-81
2022/07/07 01:59:21;;;;;;;;;;;;;;;17.04;51.64;100363.91;1087972;54;19946;-81
2022/07/07 02:00:25;;;;;;;;;;;;;;;17.05;51.37;100367.44;1087979;54;19942;-82
2022/07/07 02:01:26;;;;;;;;;;;;;;;17.09;51.55;100363.38;1087867;54;20555;-83
2022/07/07 02:02:30;;;;;;;;;;;;;;;17.05;51.36;100370.16;1087902;54;19950;-82
2022/07/07 02:03:32;;;;;;;;;;;;;;;17.13;51.13;100368.25;1087941;54;19946;-82
2022/07/07 02:04:36;;;;;;;;;;;;;;;17.14;51.21;100369.88;1088020;54;19946;-82
2022/07/07 02:05:37;;;;;;;;;;;;;;;17.21;50.91;100371.91;1087926;54;19971;-83
2022/07/07 02:06:41;;;;;;;;;;;;;;;17.21;51.03;100375.41;1087319;54;19954;-83
2022/07/07 02:07:42;;;;;;;;;;;;;;;17.14;51.20;100377.16;1090396;39;20568;-81
2022/07/07 02:08:46;;;;;;;;;;;;;;;17.08;51.18;100376.03;1087964;54;19942;-83
2022/07/07 02:09:47;;;;;;;;;;;;;;;17.08;51.11;100381.44;1088562;39;20759;-82
2022/07/07 02:12:10;;;;;;;;;;;;;;;16.99;51.53;100379.81;1088008;54;19947;-82
2022/07/07 02:13:11;;;;;;;;;;;;;;;17.02;51.05;100371.34;1087936;54;19947;-83
2022/07/07 02:14:15;;;;;;;;;;;;;;;17.06;51.32;100383.47;1090957;39;20571;-83
2022/07/07 02:15:18;;;;;;;;;;;;;;;17.10;51.03;100374.00;1088001;54;19942;-85
2022/07/07 02:16:22;;;;;;;;;;;;;;;17.11;51.00;100380.22;1088029;54;19949;-84
2022/07/07 02:17:23;;;;;;;;;;;;;;;17.05;51.39;100380.94;1088000;54;19942;-81
2022/07/07 02:18:27;;;;;;;;;;;;;;;17.06;51.30;100378.06;1088090;54;19942;-81
2022/07/07 02:19:29;;;;;;;;;;;;;;;17.03;51.17;100372.19;1087996;54;19942;-81
2022/07/07 02:20:33;;;;;;;;;;;;;;;17.03;51.06;100382.97;1087915;54;19986;-81
2022/07/07 02:21:34;;;;;;;;;;;;;;;17.08;51.37;100375.19;1087942;54;19994;-81
2022/07/07 02:22:38;;;;;;;;;;;;;;;17.06;51.14;100371.81;1087866;54;19950;-81
2022/07/07 02:23:40;;;;;;;;;;;;;;;17.05;51.28;100379.06;1088218;39;20420;-80
2022/07/07 02:24:46;;;;;;;;;;;;;;;17.07;51.42;100368.13;1087949;54;19946;-81
2022/07/07 02:25:48;;;;;;;;;;;;;;;17.03;51.19;100370.34;1087775;54;19939;-81
2022/07/07 02:26:54;;;;;;;;;;;;;;;17.06;51.10;100371.81;1087873;54;20492;-81
2022/07/07 02:27:55;;;;;;;;;;;;;;;17.00;51.32;100368.81;1087777;54;19957;-80
2022/07/07 02:28:59;;;;;;;;;;;;;;;17.04;51.55;100374.72;1087850;54;19951;-81
2022/07/07 02:30:01;;;;;;;;;;;;;;;17.09;51.27;100376.88;1087927;54;19998;-80
2022/07/07 02:31:05;;;;;;;;;;;;;;;16.98;51.17;100376.28;1087836;54;19942;-82
2022/07/07 02:32:09;;;;;;;;;;;;;;;16.94;51.20;100372.22;1087844;54;19942;-82
2022/07/07 02:33:11;;;;;;;;;;;;;;;16.92;51.45;100370.72;1087859;54;19966;-84
2022/07/07 02:34:15;;;;;;;;;;;;;;;16.91;51.87;100374.41;1087922;54;19949;-83
2022/07/07 02:35:17;;;;;;;;;;;;;;;16.91;51.69;100372.56;1087755;54;20410;-82
2022/07/07 02:36:22;;;;;;;;;;;;;;;16.84;51.73;100374.28;1087869;54;19934;-82
2022/07/07 02:37:23;;;;;;;;;;;;;;;16.79;51.98;100366.72;1087714;54;19943;-81
2022/07/07 02:38:27;;;;;;;;;;;;;;;16.76;52.00;100367.09;1087848;54;19949;-80
2022/07/07 02:39:28;;;;;;;;;;;;;;;16.75;52.16;100365.41;1090385;39;20495;-79
2022/07/07 02:40:32;;;;;;;;;;;;;;;16.75;52.27;100369.94;1087690;54;20594;-83
2022/07/07 02:41:37;;;;;;;;;;;;;;;16.76;52.14;100361.69;1088449;54;19938;-81
2022/07/07 02:42:41;;;;;;;;;;;;;;;16.79;51.98;100374.00;1090317;39;20396;-82
2022/07/07 02:43:45;;;;;;;;;;;;;;;16.82;52.01;100365.53;1088351;54;19942;-83
2022/07/07 02:44:46;;;;;;;;;;;;;;;16.83;51.99;100364.50;1089570;46;19934;-80
2022/07/07 02:45:51;;;;;;;;;;;;;;;16.86;51.88;100361.47;1088452;54;19958;-83
2022/07/07 02:46:52;;;;;;;;;;;;;;;16.84;52.05;100367.03;1088068;54;19967;-85
2022/07/07 02:47:56;;;;;;;;;;;;;;;16.93;51.76;100361.59;1088426;54;19950;-82
2022/07/07 02:48:57;;;;;;;;;;;;;;;17.07;51.21;100360.00;1088245;54;19927;-82
2022/07/07 02:50:01;;;;;;;;;;;;;;;17.10;50.74;100357.78;1089648;46;19949;-82
2022/07/07 02:51:03;;;;;;;;;;;;;;;17.19;50.43;100363.13;1087752;54;19934;-83
2022/07/07 02:52:07;;;;;;;;;;;;;;;17.16;50.27;100358.94;1088392;54;19994;-82
2022/07/07 02:53:10;;;;;;;;;;;;;;;17.14;50.51;100364.50;1089963;39;20404;-83
2022/07/07 02:54:14;;;;;;;;;;;;;;;17.16;50.23;100356.22;1088211;54;19929;-82
2022/07/07 02:55:15;;;;;;;;;;;;;;;17.21;50.24;100363.78;1088116;54;19933;-82
2022/07/07 02:56:19;;;;;;;;;;;;;;;17.23;50.14;100362.56;1087794;54;19998;-82
2022/07/07 02:57:20;;;;;;;;;;;;;;;17.31;49.67;100357.09;1087606;54;19951;-82
2022/07/07 02:58:27;;;;;;;;;;;;;;;17.32;49.71;100360.66;1087150;54;20762;-84
2022/07/07 02:59:29;;;;;;;;;;;;;;;17.34;49.59;100355.91;1087973;54;20499;-82
2022/07/07 03:00:33;;;;;;;;;;;;;;;17.31;49.82;100356.28;1088340;54;19950;-81
2022/07/07 07:08:44;;;;;;;;;;;;;;;18.71;49.38;100278.09;1087090;39;21466;-79
2022/07/07 07:09:47;;;;;;;;;;;;;;;18.74;49.48;100283.13;1087693;54;20002;-78
2022/07/07 07:10:51;;;;;;;;;;;;;;;18.79;49.49;100277.97;1087988;54;19977;-77
2022/07/07 07:11:54;;;;;;;;;;;;;;;18.82;49.06;100282.16;1088420;54;19942;-78
2022/07/07 07:12:57;;;;;;;;;;;;;;;18.83;49.08;100279.25;1088225;54;19942;-77
2022/07/07 07:14:02;;;;;;;;;;;;;;;18.77;49.49;100284.59;1088277;54;19942;-82
2022/07/07 07:15:06;;;;;;;;;;;;;;;18.76;49.33;100291.91;1088331;54;19927;-77
2022/07/07 07:16:08;;;;;;;;;;;;;;;18.71;49.63;100288.91;1088786;46;19950;-81
2022/07/07 07:17:12;;;;;;;;;;;;;;;18.75;49.46;100290.22;1088364;54;20677;-77
2022/07/07 07:18:14;;;;;;;;;;;;;;;18.84;49.56;100289.06;1090917;46;19942;-78
2022/07/07 07:19:18;;;;;;;;;;;;;;;18.91;49.14;100290.97;1087827;54;19938;-78
2022/07/07 07:20:19;;;;;;;;;;;;;;;18.94;49.26;100282.50;1087751;54;19954;-78
2022/07/07 07:21:23;;;;;;;;;;;;;;;18.94;49.46;100290.63;1088335;54;19947;-79
2022/07/07 07:22:25;;;;;;;;;;;;;;;18.98;49.35;100289.22;1088340;54;19945;-78
2022/07/07 07:23:29;;;;;;;;;;;;;;;18.99;49.32;100291.75;1089328;46;19938;-78
2022/07/07 07:24:30;;;;;;;;;;;;;;;19.03;49.16;100292.19;1088263;54;19999;-81
2022/07/07 07:25:37;;;;;;;;;;;;;;;18.94;49.13;100288.75;1088259;54;19923;-78
2022/07/07 07:26:41;;;;;;;;;;;;;;;18.68;49.62;100289.31;1089566;46;19954;-78
2022/07/07 07:27:42;;;;;;;;;;;;;;;18.65;49.77;100298.66;1088492;46;19939;-77
2022/07/07 07:28:46;;;;;;;;;;;;;;;18.81;49.35;100294.03;1087955;54;19942;-79
2022/07/07 07:29:47;;;;;;;;;;;;;;;18.87;49.14;100298.66;1089999;46;19942;-79
2022/07/07 07:30:51;;;;;;;;;;;;;;;18.88;49.33;100294.09;1087952;54;19950;-78
2022/07/07 07:31:52;;;;;;;;;;;;;;;18.97;49.13;100303.81;1087695;54;19950;-78
2022/07/07 07:32:55;;;;;;;;;;;;;;;19.00;49.23;100298.84;1087343;54;20006;-77
2022/07/07 07:33:59;;;;;;;;;;;;;;;19.05;48.99;100305.53;1087714;54;19943;-77
2022/07/07 07:35:00;;;;;;;;;;;;;;;19.08;49.12;100300.56;1086526;54;19970;-78
2022/07/07 07:36:07;;;;;;;;;;;;;;;19.07;49.42;100303.47;1086841;54;19950;-77
2022/07/07 07:37:09;;;;;;;;;;;;;;;19.06;49.30;100299.94;1086548;54;19970;-77
2022/07/07 07:38:12;;;;;;;;;;;;;;;19.08;49.29;100302.44;1086955;54;19962;-78
2022/07/07 07:39:14;;;;;;;;;;;;;;;19.09;48.83;100302.22;1087049;54;20433;-77
2022/07/07 07:40:17;;;;;;;;;;;;;;;19.09;48.81;100302.22;1087379;54;19931;-78
2022/07/07 07:41:24;;;;;;;;;;;;;;;19.11;48.50;100302.88;1088837;46;19946;-78
2022/07/07 07:42:25;;;;;;;;;;;;;;;19.06;48.78;100296.38;1087477;54;19942;-78
2022/07/07 07:43:29;;;;;;;;;;;;;;;19.10;48.69;100294.97;1087988;54;19986;-78
2022/07/07 07:45:49;;;;;;;;;;;;;;;19.09;48.42;100302.22;1087961;54;19934;-80
2022/07/07 07:46:50;;;;;;;;;;;;;;;19.02;48.73;100302.19;1088296;54;19938;-78
2022/07/07 07:47:54;;;;;;;;;;;;;;;18.99;48.88;100299.88;1088085;54;19950;-78
2022/07/07 07:48:55;;;;;;;;;;;;;;;19.00;48.59;100300.69;1088557;46;19962;-79
2022/07/07 07:49:59;;;;;;;;;;;;;;;18.78;48.93;100300.69;1088372;54;19990;-79
2022/07/07 07:51:00;;;;;;;;;;;;;;;18.89;48.94;100298.50;1088332;54;19950;-78
2022/07/07 07:52:04;;;;;;;;;;;;;;;18.81;49.00;100294.84;1088154;54;19966;-78
2022/07/07 07:53:08;;;;;;;;;;;;;;;18.84;49.14;100293.66;1087064;54;19939;-78
2022/07/07 07:54:09;;;;;;;;;;;;;;;18.85;49.43;100298.00;1087886;54;19962;-79
2022/07/07 07:55:15;;;;;;;;;;;;;;;18.85;49.11;100298.88;1087272;54;19951;-80
2022/07/07 07:56:19;;;;;;;;;;;;;;;18.80;49.58;100295.88;1087511;54;19970;-80
2022/07/07 07:57:23;;;;;;;;;;;;;;;18.94;48.89;100298.75;1087175;54;19950;-78
2022/07/07 07:58:27;;;;;;;;;;;;;;;18.97;49.25;100295.69;1087945;39;20408;-76
2022/07/07 07:59:34;;;;;;;;;;;;;;;18.96;49.38;100304.84;1088156;39;20442;-79
2022/07/07 08:00:38;;;;;;;;;;;;;;;19.07;48.84;100298.03;1088267;54;19930;-80
2022/07/07 08:01:39;;;;;;;;;;;;;;;19.08;48.74;100305.97;1087304;54;20019;-80
2022/07/07 08:05:49;;;;;;;;;;;;;;;19.16;48.70;100297.72;1094652;31;20732;-77
2022/07/07 08:07:01;;;;;;;;;;;;;;;19.26;48.84;100301.97;1087902;54;19943;-82
2022/07/07 08:09:08;;;;;;;;;;;;;;;19.30;48.19;100304.09;1088361;54;19927;-83
2022/07/07 08:11:49;;;;;;;;;;;;;;;19.33;48.45;100308.28;1088019;54;19947;-82
2022/07/07 08:12:56;;;;;;;;;;;;;;;19.29;48.30;100304.28;1088229;54;19942;-82
2022/07/07 08:14:01;;;;;;;;;;;;;;;19.34;48.18;100301.84;1088326;54;19949;-82
2022/07/07 08:16:45;;;;;;;;;;;;;;;;;;;;;
2022/07/07 08:22:54;;;;;;;;;;;;;;;19.56;47.90;100285.50;1087801;54;19974;-85
2022/07/07 08:24:22;;;;;;;;;;;;;;;19.41;48.19;100278.31;1087835;54;20003;-83
2022/07/07 08:26:00;;;;;;;;;;;;;;;;;;;;;
2022/07/07 08:27:23;;;;;;;;;;;;;;;19.56;48.34;100274.66;1089013;46;19942;-81
2022/07/07 08:29:07;;;;;;;;;;;;;;;;;;;;;
2022/07/07 08:30:22;;;;;;;;;;;;;;;;;;;;;
2022/07/07 08:31:53;;;;;;;;;;;;;;;19.73;48.38;100275.19;1087867;54;19942;-82
2022/07/07 08:33:23;;;;;;;;;;;;;;;;;;;;;
2022/07/07 08:34:44;;;;;;;;;;;;;;;19.67;48.46;100265.97;1087827;54;19950;-81
2022/07/07 08:36:02;;;;;;;;;;;;;;;;;;;;;
2022/07/07 08:37:41;;;;;;;;;;;;;;;19.67;48.71;100274.09;1090454;39;20762;-81
2022/07/07 08:40:22;;;;;;;;;;;;;;;19.83;48.49;100280.25;1087844;54;19983;-82
2022/07/07 08:44:50;;;;;;;;;;;;;;;19.61;50.22;100277.63;1087990;54;19949;-83
2022/07/07 13:08:55;;;;;;;;;;;;;;;19.80;61.46;100374.56;1083083;54;25412;-80
2022/07/07 13:09:56;;;;;;;;;;;;;;;19.80;62.24;100379.97;1086909;39;20367;-79
2022/07/07 13:11:00;;;;;;;;;;;;;;;19.77;61.19;100380.34;1086384;54;19947;-77
2022/07/07 13:12:04;;;;;;;;;;;;;;;19.74;61.20;100386.16;1086874;46;19973;-80
2022/07/07 13:13:05;;;;;;;;;;;;;;;19.73;61.50;100389.09;1087008;54;19958;-81
2022/07/07 13:14:09;;;;;;;;;;;;;;;19.71;61.29;100383.88;1086978;54;19970;-79
2022/07/07 13:15:11;;;;;;;;;;;;;;;19.70;61.84;100384.03;1086670;54;19958;-82
2022/07/07 13:16:14;;;;;;;;;;;;;;;19.69;60.63;100390.53;1086943;54;19973;-80
2022/07/07 13:17:16;;;;;;;;;;;;;;;19.62;61.66;100393.19;1087109;54;19958;-78
2022/07/07 13:18:25;;;;;;;;;;;;;;;19.63;61.80;100395.69;1087049;54;19950;-79
2022/07/07 13:19:29;;;;;;;;;;;;;;;19.64;61.93;100391.13;1086077;54;20010;-79
2022/07/07 13:20:34;;;;;;;;;;;;;;;19.64;61.49;100386.53;1085874;54;19957;-79
2022/07/07 13:21:38;;;;;;;;;;;;;;;19.37;61.95;100390.88;1086833;54;20436;-80
2022/07/07 13:22:42;;;;;;;;;;;;;;;19.41;62.28;100394.06;1086948;54;19939;-79
2022/07/07 13:23:43;;;;;;;;;;;;;;;19.52;62.70;100387.25;1085892;46;20594;-78
2022/07/07 13:24:50;;;;;;;;;;;;;;;19.44;62.57;100399.91;1085545;46;19989;-79
2022/07/07 13:25:51;;;;;;;;;;;;;;;19.49;63.02;100394.75;1085413;54;19947;-79
2022/07/07 13:26:56;;;;;;;;;;;;;;;19.46;62.88;100389.69;1085943;39;20079;-78
2022/07/07 13:27:57;;;;;;;;;;;;;;;19.36;62.50;100397.34;1085368;54;19947;-77
2022/07/07 13:29:01;;;;;;;;;;;;;;;19.26;62.92;100410.38;1085407;54;20436;-77
2022/07/07 13:30:05;;;;;;;;;;;;;;;19.30;62.63;100403.53;1085198;54;19958;-77
2022/07/07 13:31:06;;;;;;;;;;;;;;;19.31;62.50;100397.06;1085286;54;19950;-78
2022/07/07 13:32:10;;;;;;;;;;;;;;;19.45;61.68;100403.47;1085639;46;19945;-77
2022/07/07 13:33:11;;;;;;;;;;;;;;;19.28;60.51;100394.75;1085373;54;19953;-79
2022/07/07 13:34:15;;;;;;;;;;;;;;;19.27;61.70;100412.88;1086667;54;20567;-76
2022/07/07 13:35:18;;;;;;;;;;;;;;;19.27;61.20;100402.03;1088321;54;19931;-75
2022/07/07 13:36:22;;;;;;;;;;;;;;;19.35;61.20;100405.66;1088319;54;19997;-75
2022/07/07 13:37:23;;;;;;;;;;;;;;;19.35;61.14;100416.50;1088186;54;19957;-76
2022/07/07 13:38:27;;;;;;;;;;;;;;;19.24;61.26;100412.44;1087888;54;19935;-76
2022/07/07 13:39:28;;;;;;;;;;;;;;;19.31;61.24;100413.34;1087864;54;19938;-73
2022/07/07 13:40:34;;;;;;;;;;;;;;;19.49;60.81;100405.59;1088118;54;19943;-75
2022/07/07 13:41:36;;;;;;;;;;;;;;;19.61;60.28;100410.47;1088348;54;19933;-76
2022/07/07 13:42:39;;;;;;;;;;;;;;;19.67;60.38;100406.16;1091524;46;19945;-75
2022/07/07 13:43:46;;;;;;;;;;;;;;;19.63;60.19;100411.97;1088363;46;19943;-75
2022/07/07 13:44:47;;;;;;;;;;;;;;;19.70;60.75;100413.88;1088282;54;19943;-76
2022/07/07 13:45:51;;;;;;;;;;;;;;;19.81;60.32;100407.91;1088372;54;19931;-75
2022/07/07 13:46:52;;;;;;;;;;;;;;;19.92;60.27;100404.72;1086993;39;20344;-80
2022/07/07 13:47:56;;;;;;;;;;;;;;;20.05;60.00;100409.38;1086956;54;19965;-81
2022/07/07 13:48:59;;;;;;;;;;;;;;;20.15;60.14;100408.19;1087061;46;19966;-82
2022/07/07 13:50:01;;;;;;;;;;;;;;;20.28;59.39;100402.84;1087548;54;19934;-81
2022/07/07 13:51:04;;;;;;;;;;;;;;;20.18;58.98;100405.91;1087812;54;19943;-80
2022/07/07 13:52:07;;;;;;;;;;;;;;;20.18;59.25;100403.19;1087346;54;19958;-80
2022/07/07 13:53:10;;;;;;;;;;;;;;;20.13;59.31;100402.13;1087542;54;19946;-82
2022/07/07 13:54:11;;;;;;;;;;;;;;;20.10;59.46;100401.50;1087632;54;19973;-78
2022/07/07 13:55:15;;;;;;;;;;;;;;;20.23;59.22;100406.16;1085759;46;19947;-79
2022/07/07 13:56:19;;;;;;;;;;;;;;;20.24;59.35;100407.00;1085485;54;19945;-79
2022/07/07 13:57:23;;;;;;;;;;;;;;;20.34;59.34;100412.06;1085422;46;19947;-80
2022/07/07 13:58:26;;;;;;;;;;;;;;;20.36;59.23;100416.25;1085858;54;19973;-80
2022/07/07 13:59:27;;;;;;;;;;;;;;;20.47;58.54;100408.59;1086272;54;19946;-78
2022/07/07 14:00:32;;;;;;;;;;;;;;;20.30;58.99;100414.34;1086447;54;20413;-77
2022/07/07 14:01:33;;;;;;;;;;;;;;;20.34;58.62;100418.31;1086901;39;20404;-77
2022/07/07 14:02:37;;;;;;;;;;;;;;;20.50;58.08;100408.19;1087392;54;19946;-80
2022/07/07 14:03:40;;;;;;;;;;;;;;;20.46;58.04;100405.00;1088203;54;19950;-81
2022/07/07 14:04:42;;;;;;;;;;;;;;;20.49;58.57;100406.50;1088356;54;19969;-83
2022/07/07 14:05:45;;;;;;;;;;;;;;;20.45;58.97;100402.50;1088332;54;19983;-82
2022/07/07 14:06:47;;;;;;;;;;;;;;;20.29;59.62;100415.38;1088206;54;20421;-82
2022/07/07 14:07:50;;;;;;;;;;;;;;;20.22;60.12;100409.06;1088253;54;19950;-82
2022/07/07 14:08:51;;;;;;;;;;;;;;;20.24;60.73;100412.41;1088245;54;19942;-80
2022/07/07 14:09:57;;;;;;;;;;;;;;;20.33;60.32;100408.50;1088052;54;19938;-84
2022/07/07 14:11:00;;;;;;;;;;;;;;;20.51;59.37;100407.13;1089636;39;20723;-82
2022/07/07 14:12:04;;;;;;;;;;;;;;;20.47;58.70;100401.25;1087990;54;19927;-81
2022/07/07 14:13:08;;;;;;;;;;;;;;;20.49;58.50;100404.63;1089243;39;20272;-81
2022/07/07 14:14:11;;;;;;;;;;;;;;;20.72;57.95;100404.31;1087737;54;19934;-80
2022/07/07 14:15:14;;;;;;;;;;;;;;;20.99;56.63;100403.59;1087689;54;19950;-79
2022/07/07 14:16:16;;;;;;;;;;;;;;;21.08;55.13;100401.50;1088082;54;19927;-81
2022/07/07 14:17:19;;;;;;;;;;;;;;;21.18;54.58;100412.81;1090151;39;20408;-79
2022/07/07 14:18:20;;;;;;;;;;;;;;;21.33;54.56;100405.34;1087833;54;19949;-80
2022/07/07 14:19:24;;;;;;;;;;;;;;;21.51;53.88;100403.88;1088108;54;19934;-80
2022/07/07 14:20:28;;;;;;;;;;;;;;;21.73;52.96;100412.69;1088229;54;19927;-81
2022/07/07 14:21:29;;;;;;;;;;;;;;;21.93;52.37;100403.69;1088178;54;19953;-81
2022/07/07 14:22:34;;;;;;;;;;;;;;;22.08;52.32;100398.03;1087807;54;20046;-80
2022/07/07 14:23:35;;;;;;;;;;;;;;;22.13;52.16;100409.09;1087902;54;19950;-82
2022/07/07 14:24:39;;;;;;;;;;;;;;;21.91;52.33;100412.06;1087944;54;19949;-79
2022/07/07 14:25:42;;;;;;;;;;;;;;;21.83;50.79;100415.00;1088877;39;20341;-79
2022/07/07 14:26:43;;;;;;;;;;;;;;;21.87;50.85;100415.44;1088018;54;19946;-79
2022/07/07 14:27:50;;;;;;;;;;;;;;;21.89;50.78;100414.16;1088026;54;19954;-79
2022/07/07 14:28:53;;;;;;;;;;;;;;;21.86;50.57;100406.41;1087801;54;19947;-78
2022/07/07 14:29:58;;;;;;;;;;;;;;;21.88;50.39;100412.50;1090638;39;20816;-79
2022/07/07 14:31:00;;;;;;;;;;;;;;;21.88;50.09;100406.19;1087753;54;19973;-79
2022/07/07 14:32:03;;;;;;;;;;;;;;;21.83;50.29;100414.16;1087657;54;19943;-77
2022/07/07 14:33:07;;;;;;;;;;;;;;;21.47;50.42;100399.91;1087561;54;19950;-78
2022/07/07 14:34:08;;;;;;;;;;;;;;;21.35;50.13;100399.69;1087960;54;19957;-78